Time;durP1;ratioP1;P1;durP2;ratioP2;P2;SDS_P1;SDS_P2;PMS_P1;PMS_P2;Temp;Humidity;BMP_temperature;BMP_pressure;BME280_temperature;BME280_humidity;BME280_pressure;Samples;Min_cycle;Max_cycle;Signal;HPM_P1;HPM_P2
2022/05/16 00:00:27;;;;;;;2.24;1.37;;;;;;;;;;351798;153;857334;-62
2022/05/16 00:01:30;;;;;;;6.84;1.59;;;;;;;;;;351563;153;865621;-62
2022/05/16 00:02:31;;;;;;;2.37;1.45;;;;;;;;;;351763;153;858590;-63
2022/05/16 00:03:33;;;;;;;4.73;1.56;;;;;;;;;;351739;153;863081;-62
2022/05/16 00:04:35;;;;;;;3.51;1.28;;;;;;;;;;352433;153;857330;-63
2022/05/16 00:05:37;;;;;;;2.58;1.22;;;;;;;;;;352588;153;857200;-62
2022/05/16 00:06:38;;;;;;;2.91;1.60;;;;;;;;;;352714;152;857634;-60
2022/05/16 00:07:40;;;;;;;4.41;1.37;;;;;;;;;;345929;154;864469;-63
2022/05/16 00:08:41;;;;;;;4.11;1.39;;;;;;;;;;352703;153;857302;-62
2022/05/16 00:09:43;;;;;;;4.39;1.34;;;;;;;;;;352718;153;857330;-63
2022/05/16 00:10:45;;;;;;;3.91;1.09;;;;;;;;;;352761;152;857429;-62
2022/05/16 00:11:46;;;;;;;3.77;1.51;;;;;;;;;;352613;153;864775;-62
2022/05/16 00:12:47;;;;;;;2.61;1.25;;;;;;;;;;352671;153;857400;-61
2022/05/16 00:13:49;;;;;;;4.58;1.51;;;;;;;;;;345973;154;859026;-63
2022/05/16 00:14:51;;;;;;;5.60;1.51;;;;;;;;;;352642;152;858867;-62
2022/05/16 00:15:52;;;;;;;3.53;1.37;;;;;;;;;;346313;155;858056;-62
2022/05/16 00:16:54;;;;;;;3.93;1.52;;;;;;;;;;346269;153;858743;-62
2022/05/16 00:17:56;;;;;;;2.64;1.18;;;;;;;;;;346217;155;858656;-63
2022/05/16 00:18:57;;;;;;;5.29;1.15;;;;;;;;;;347088;152;857794;-63
2022/05/16 00:19:59;;;;;;;2.25;1.26;;;;;;;;;;347343;155;857260;-63
2022/05/16 00:21:00;;;;;;;5.23;1.47;;;;;;;;;;347381;155;857270;-62
2022/05/16 00:22:03;;;;;;;1.79;1.21;;;;;;;;;;347382;155;857688;-63
2022/05/16 00:23:05;;;;;;;3.98;1.34;;;;;;;;;;347278;155;857783;-62
2022/05/16 00:24:06;;;;;;;4.24;1.66;;;;;;;;;;347222;155;857282;-62
2022/05/16 00:25:09;;;;;;;3.21;1.31;;;;;;;;;;347155;153;865150;-62
2022/05/16 00:26:11;;;;;;;3.83;1.47;;;;;;;;;;341021;158;857206;-62
2022/05/16 00:27:12;;;;;;;4.03;1.10;;;;;;;;;;341117;155;859841;-62
2022/05/16 00:28:14;;;;;;;3.88;1.56;;;;;;;;;;341150;158;857881;-61
2022/05/16 00:29:15;;;;;;;3.37;1.46;;;;;;;;;;344797;155;865254;-62
2022/05/16 00:30:18;;;;;;;3.50;1.38;;;;;;;;;;342162;155;857287;-61
2022/05/16 00:31:20;;;;;;;2.73;1.15;;;;;;;;;;341170;158;857292;-62
2022/05/16 00:32:23;;;;;;;2.42;1.40;;;;;;;;;;346611;155;865301;-62
2022/05/16 00:44:52;;;;;;;7.09;1.43;;;;;;;9.98;61.57;99914.47;374972;142;883137;-63
2022/05/16 00:45:54;;;;;;;6.14;1.77;;;;;;;9.85;61.86;99910.23;366130;146;858633;-62
2022/05/16 00:46:56;;;;;;;2.44;1.31;;;;;;;9.80;62.55;99907.66;366181;147;858679;-63
2022/05/16 00:47:57;;;;;;;2.81;1.41;;;;;;;9.75;62.50;99904.24;365921;147;859423;-63
2022/05/16 00:49:00;;;;;;;2.35;1.59;;;;;;;9.70;62.63;99905.99;366136;147;865475;-62
2022/05/16 00:50:03;;;;;;;2.82;1.30;;;;;;;9.67;62.92;99911.17;365887;147;865763;-62
2022/05/16 00:51:05;;;;;;;2.62;1.45;;;;;;;9.66;62.66;99915.50;366030;147;864851;-63
2022/05/16 00:52:20;;;;;;;2.93;1.25;;;;;;;9.69;62.64;99897.39;366087;147;857233;-63
2022/05/16 00:53:22;;;;;;;2.64;1.52;;;;;;;9.68;62.70;99899.97;365936;147;860558;-62
2022/05/16 00:54:32;;;;;;;6.06;1.48;;;;;;;9.69;62.68;99907.73;360179;147;859349;-62
2022/05/16 00:55:36;;;;;;;3.33;1.48;;;;;;;9.65;62.72;99916.38;359354;147;864734;-62
2022/05/16 00:56:38;;;;;;;3.13;1.18;;;;;;;9.64;62.49;99905.16;358819;150;860175;-62
2022/05/16 00:57:45;;;;;;;6.54;1.64;;;;;;;9.63;62.75;99908.61;360406;147;858928;-63
2022/05/16 00:58:46;;;;;;;4.68;1.53;;;;;;;9.67;62.79;99908.59;365942;147;865183;-62
2022/05/16 00:59:52;;;;;;;3.96;1.55;;;;;;;9.67;62.72;99911.17;352137;150;860482;-63
2022/05/16 01:00:54;;;;;;;6.34;2.15;;;;;;;9.67;62.66;99913.77;351127;150;857121;-62
2022/05/16 01:04:47;;;;;;;3.66;1.20;;;;;;;9.60;62.85;99908.63;361685;147;857657;-62
2022/05/16 01:05:49;;;;;;;4.16;1.39;;;;;;;;;;363249;147;858949;-63
2022/05/16 01:06:52;;;;;;;1.92;1.19;;;;;;;;;;366144;147;857559;-63
2022/05/16 01:07:54;;;;;;;2.75;1.22;;;;;;;;;;363241;147;864834;-62
2022/05/16 01:08:56;;;;;;;5.43;1.50;;;;;;;;;;354258;152;864515;-62
2022/05/16 01:09:57;;;;;;;3.53;1.34;;;;;;;;;;356481;150;857577;-63
2022/05/16 01:11:01;;;;;;;5.24;1.29;;;;;;;;;;366107;147;864367;-62
2022/05/16 01:12:03;;;;;;;3.67;1.16;;;;;;;;;;365957;147;864749;-62
2022/05/16 01:13:05;;;;;;;3.12;1.57;;;;;;;;;;366210;147;859522;-62
2022/05/16 01:14:06;;;;;;;2.95;1.08;;;;;;;;;;362061;147;857699;-63
2022/05/16 01:15:09;;;;;;;2.25;1.17;;;;;;;;;;363963;147;866032;-62
2022/05/16 01:16:12;;;;;;;4.85;1.31;;;;;;;;;;365967;147;859761;-62
2022/05/16 01:17:13;;;;;;;1.59;1.10;;;;;;;;;;366208;147;858009;-62
2022/05/16 01:18:17;;;;;;;5.31;1.39;;;;;;;;;;364221;147;857272;-63
2022/05/16 01:19:18;;;;;;;4.16;1.42;;;;;;;;;;363779;148;857160;-62
2022/05/16 01:20:20;;;;;;;3.89;1.63;;;;;;;;;;365754;147;859792;-63
2022/05/16 01:21:33;;;;;;;3.85;1.67;;;;;;;;;;366000;147;864509;-62
2022/05/16 01:22:45;;;;;;;2.83;1.11;;;;;;;;;;365826;147;859209;-63
2022/05/16 01:23:51;;;;;;;4.86;1.35;;;;;;;;;;365814;147;858726;-62
2022/05/16 01:24:53;;;;;;;3.65;0.93;;;;;;;;;;365297;147;857341;-62
2022/05/16 01:25:54;;;;;;;3.71;1.24;;;;;;;;;;361611;147;858691;-63
2022/05/16 01:26:56;;;;;;;3.91;1.44;;;;;;;;;;359469;150;857651;-63
2022/05/16 01:27:59;;;;;;;6.39;1.47;;;;;;;;;;360787;147;866369;-62
2022/05/16 01:29:00;;;;;;;4.69;1.56;;;;;;;;;;362736;147;857314;-62
2022/05/16 01:30:03;;;;;;;3.81;1.29;;;;;;;;;;361638;147;865118;-62
2022/05/16 01:42:53;;;;;;;2.26;1.13;;;;;;;9.08;63.70;99904.49;372757;142;879366;-62
2022/05/16 01:43:56;;;;;;;4.86;1.69;;;;;;;8.95;63.94;99905.38;356891;150;860116;-63
2022/05/16 01:44:58;;;;;;;4.41;1.32;;;;;;;8.94;64.08;99911.41;355990;151;864765;-62
2022/05/16 01:45:59;;;;;;;4.25;1.56;;;;;;;8.95;63.90;99903.64;358567;149;857777;-63
2022/05/16 01:47:01;;;;;;;2.71;1.33;;;;;;;8.98;63.95;99902.80;361224;149;866268;-62
2022/05/16 01:48:04;;;;;;;4.04;1.21;;;;;;;8.98;64.12;99906.22;356442;149;865157;-62
2022/05/16 01:49:07;;;;;;;4.17;1.31;;;;;;;9.01;63.13;99913.99;356409;147;866272;-62
2022/05/16 01:50:10;;;;;;;3.31;1.29;;;;;;;9.01;63.13;99913.99;359073;149;864585;-63
2022/05/16 01:51:12;;;;;;;3.18;1.47;;;;;;;8.98;62.91;99913.97;359463;150;858826;-62
2022/05/16 01:52:14;;;;;;;3.95;1.51;;;;;;;8.98;63.28;99905.38;359239;150;857258;-63
2022/05/16 01:53:16;;;;;;;3.30;1.23;;;;;;;9.00;63.26;99912.24;359509;150;859041;-63
2022/05/16 01:54:18;;;;;;;2.63;1.63;;;;;;;9.00;62.72;99908.81;358041;150;866598;-62
2022/05/16 01:55:20;;;;;;;4.24;1.41;;;;;;;9.01;62.40;99910.53;358057;150;857300;-63
2022/05/16 01:56:22;;;;;;;3.76;1.31;;;;;;;9.01;62.65;99907.95;359185;150;857247;-62
2022/05/16 01:57:24;;;;;;;4.72;1.81;;;;;;;8.99;62.62;99912.27;359430;150;858630;-62
2022/05/16 01:58:26;;;;;;;3.46;1.37;;;;;;;8.96;62.49;99910.53;359294;150;859423;-62
2022/05/16 01:59:27;;;;;;;3.47;1.67;;;;;;;8.95;62.01;99905.38;358667;150;864967;-62
2022/05/16 02:00:31;;;;;;;3.79;1.30;;;;;;;8.89;62.06;99909.70;353018;152;859073;-62
2022/05/16 02:01:33;;;;;;;3.36;1.22;;;;;;;8.88;62.41;99907.98;353555;149;857892;-62
2022/05/16 02:02:36;;;;;;;3.92;1.60;;;;;;;8.88;62.14;99910.56;361271;149;857296;-62
2022/05/16 02:03:43;;;;;;;2.99;1.61;;;;;;;8.85;61.75;99910.56;360768;149;856888;-61
2022/05/16 02:04:45;;;;;;;3.14;1.67;;;;;;;8.78;62.02;99906.27;359340;147;857332;-63
2022/05/16 02:05:47;;;;;;;4.14;1.40;;;;;;;8.68;61.05;99909.73;359286;150;857365;-62
2022/05/16 02:06:49;;;;;;;5.09;1.61;;;;;;;8.56;61.42;99903.72;359393;150;866293;-62
2022/05/16 02:07:51;;;;;;;4.51;1.36;;;;;;;8.50;61.43;99902.84;357180;149;858185;-62
2022/05/16 02:08:54;;;;;;;3.71;1.40;;;;;;;8.43;61.78;99904.52;353011;152;858261;-62
2022/05/16 02:09:56;;;;;;;3.66;1.40;;;;;;;8.38;62.07;99904.53;353107;150;865359;-62
2022/05/16 02:10:59;;;;;;;6.25;1.35;;;;;;;8.32;62.33;99902.79;353037;152;857257;-63
2022/05/16 02:12:01;;;;;;;5.37;1.44;;;;;;;8.31;62.71;99907.97;353144;150;857796;-62
2022/05/16 02:13:03;;;;;;;3.51;1.45;;;;;;;8.27;62.62;99906.25;353061;152;857582;-62
2022/05/16 02:14:05;;;;;;;4.59;1.66;;;;;;;8.26;63.57;99904.52;353091;150;864576;-62
2022/05/16 02:15:08;;;;;;;2.96;1.43;;;;;;;8.25;63.87;99905.38;352962;152;864906;-62
2022/05/16 02:16:10;;;;;;;4.47;1.43;;;;;;;8.25;63.96;99905.38;353011;150;866856;-61
2022/05/16 02:17:12;;;;;;;3.17;1.61;;;;;;;8.23;64.18;99900.20;353042;152;857098;-62
2022/05/16 02:18:14;;;;;;;6.34;1.86;;;;;;;8.21;63.49;99907.08;359303;149;864785;-62
2022/05/16 02:19:16;;;;;;;2.83;1.63;;;;;;;8.14;63.69;99908.81;361226;149;865826;-62
2022/05/16 02:20:18;;;;;;;2.84;1.57;;;;;;;8.09;63.56;99909.65;354135;149;857304;-62
2022/05/16 02:25:15;;;;;;;;;;;;;;;7.95;63.64;99910.48;362145;150;858492;-62
2022/05/16 02:26:18;;;;;;;4.05;1.41;;;;;;;7.99;63.47;99908.79;354135;150;857437;-61
2022/05/16 02:27:19;;;;;;;5.53;2.35;;;;;;;8.03;63.40;99907.94;352935;152;857284;-61
2022/05/16 02:28:21;;;;;;;3.40;1.49;;;;;;;8.03;63.21;99907.94;353263;150;859047;-63
2022/05/16 02:29:23;;;;;;;4.65;1.49;;;;;;;8.03;63.24;99903.63;353159;150;866277;-62
2022/05/16 02:30:25;;;;;;;3.35;1.70;;;;;;;8.06;63.38;99909.64;359291;150;859238;-62
2022/05/16 02:31:27;;;;;;;3.99;1.66;;;;;;;8.07;63.36;99907.08;359286;150;857669;-62
2022/05/16 02:32:29;;;;;;;2.37;1.22;;;;;;;8.09;63.18;99904.49;352924;152;864811;-62
2022/05/16 02:33:31;;;;;;;5.65;1.39;;;;;;;8.13;63.11;99903.64;353293;149;864879;-61
2022/05/16 02:34:32;;;;;;;2.66;1.39;;;;;;;8.13;63.04;99899.36;361213;149;864703;-63
2022/05/16 02:35:34;;;;;;;7.33;1.41;;;;;;;8.15;62.69;99900.22;360338;149;865919;-63
2022/05/16 02:36:36;;;;;;;2.27;1.21;;;;;;;8.17;62.62;99898.50;359138;150;865821;-62
2022/05/16 02:37:37;;;;;;;4.72;1.81;;;;;;;8.19;62.35;99912.26;352174;151;856967;-62
2022/05/16 02:38:39;;;;;;;5.63;1.39;;;;;;;8.22;62.28;99903.64;359390;148;865700;-62
2022/05/16 02:39:45;;;;;;;4.84;1.54;;;;;;;8.21;62.22;99906.23;359167;150;866869;-62
2022/05/16 02:40:47;;;;;;;5.57;1.64;;;;;;;8.22;62.36;99905.38;358962;150;865298;-62
2022/05/16 02:41:49;;;;;;;2.64;1.72;;;;;;;8.22;61.75;99895.06;356818;150;857726;-63
2022/05/16 02:42:51;;;;;;;4.93;1.76;;;;;;;8.16;62.15;99904.52;352809;152;857283;-63
2022/05/16 02:43:53;;;;;;;4.32;1.75;;;;;;;8.14;62.59;99903.66;353116;150;857169;-63
2022/05/16 02:44:55;;;;;;;3.66;1.54;;;;;;;8.12;62.47;99894.18;354726;147;857953;-62
2022/05/16 02:45:56;;;;;;;3.91;1.53;;;;;;;8.15;62.64;99904.50;359084;147;864758;-63
2022/05/16 02:46:59;;;;;;;3.48;1.97;;;;;;;8.15;62.40;99905.38;352989;152;864751;-63
2022/05/16 02:48:01;;;;;;;4.44;1.68;;;;;;;8.16;62.47;99904.52;353234;150;859425;-62
2022/05/16 02:49:03;;;;;;;6.30;1.83;;;;;;;8.17;62.56;99911.39;352878;152;866803;-63
2022/05/16 02:50:06;;;;;;;4.14;1.63;;;;;;;8.20;62.49;99913.09;357935;149;857104;-63
2022/05/16 02:51:08;;;;;;;5.95;1.95;;;;;;;8.21;62.65;99907.08;361151;149;857153;-63
2022/05/16 02:52:09;;;;;;;2.81;1.64;;;;;;;8.22;62.59;99906.23;355548;149;857181;-63
2022/05/16 02:53:11;;;;;;;4.79;1.83;;;;;;;8.25;62.35;99913.97;352985;152;864487;-63
2022/05/16 02:54:13;;;;;;;4.59;2.15;;;;;;;8.26;62.54;99915.69;353215;150;860781;-62
2022/05/16 02:55:14;;;;;;;5.36;1.58;;;;;;;;;;353025;152;865973;-63
2022/05/16 02:56:16;;;;;;;3.67;1.47;;;;;;;;;;353147;150;865427;-62
2022/05/16 02:57:18;;;;;;;5.94;2.23;;;;;;;;;;352950;152;858001;-63
2022/05/16 02:58:19;;;;;;;3.08;1.85;;;;;;;;;;353128;150;865007;-63
2022/05/16 02:59:23;;;;;;;3.79;2.26;;;;;;;;;;353012;152;857292;-63
2022/05/16 03:00:24;;;;;;;5.26;2.19;;;;;;;;;;352979;150;858902;-61
2022/05/16 03:01:25;;;;;;;5.28;2.90;;;;;;;;;;353007;150;857981;-62
2022/05/16 03:02:27;;;;;;;3.39;2.40;;;;;;;;;;352944;152;857796;-62
2022/05/16 03:03:29;;;;;;;4.42;2.27;;;;;;;;;;352980;150;860111;-63
2022/05/16 03:04:31;;;;;;;4.08;2.11;;;;;;;;;;358831;150;865605;-62
2022/05/16 03:05:32;;;;;;;3.11;1.93;;;;;;;;;;358430;150;865975;-62
2022/05/16 03:06:34;;;;;;;3.66;2.16;;;;;;;;;;359045;150;859401;-62
2022/05/16 03:07:35;;;;;;;2.71;1.84;;;;;;;;;;358354;150;865076;-62
2022/05/16 03:08:37;;;;;;;3.82;2.16;;;;;;;;;;353007;152;857152;-62
2022/05/16 03:09:38;;;;;;;4.49;2.03;;;;;;;;;;354177;150;864780;-61
2022/05/16 03:10:40;;;;;;;5.82;2.21;;;;;;;;;;359428;150;857399;-62
2022/05/16 03:11:42;;;;;;;4.98;2.05;;;;;;;;;;359164;150;857823;-63
2022/05/16 03:12:44;;;;;;;3.51;2.32;;;;;;;;;;359359;150;857351;-64
2022/05/16 03:13:46;;;;;;;3.69;1.74;;;;;;;;;;359033;150;864995;-62
2022/05/16 03:14:48;;;;;;;3.49;1.74;;;;;;;;;;359351;150;865064;-64
2022/05/16 03:15:50;;;;;;;4.39;2.08;;;;;;;;;;359107;150;857251;-63
2022/05/16 03:16:52;;;;;;;3.49;2.02;;;;;;;;;;359377;150;857169;-62
2022/05/16 03:17:53;;;;;;;3.27;2.03;;;;;;;;;;356593;150;857146;-63
2022/05/16 03:18:55;;;;;;;3.70;1.81;;;;;;;;;;353106;150;857274;-63
2022/05/16 03:19:56;;;;;;;4.44;1.94;;;;;;;;;;353027;150;857348;-63
2022/05/16 03:20:58;;;;;;;4.29;1.78;;;;;;;;;;352938;152;857326;-63
2022/05/16 03:22:00;;;;;;;4.94;2.06;;;;;;;;;;356924;149;864857;-63
2022/05/16 03:23:02;;;;;;;2.53;1.76;;;;;;;;;;361121;146;857212;-63
2022/05/16 03:24:04;;;;;;;6.51;1.95;;;;;;;;;;359840;149;857166;-63
2022/05/16 03:25:06;;;;;;;3.85;2.05;;;;;;;;;;359238;150;858636;-63
2022/05/16 03:26:08;;;;;;;6.87;1.65;;;;;;;;;;353254;150;859048;-63
2022/05/16 03:27:10;;;;;;;2.16;1.47;;;;;;;;;;352758;152;857203;-63
2022/05/16 03:28:12;;;;;;;4.13;1.89;;;;;;;;;;352905;150;857121;-63
2022/05/16 03:29:14;;;;;;;6.65;1.95;;;;;;;;;;356195;150;857567;-63
2022/05/16 03:30:16;;;;;;;3.89;2.07;;;;;;;;;;358949;150;866711;-63
2022/05/16 03:31:17;;;;;;;5.99;2.03;;;;;;;;;;359162;150;857268;-63
2022/05/16 03:32:19;;;;;;;3.57;1.59;;;;;;;;;;358880;150;857245;-63
2022/05/16 03:33:40;;;;;;;6.03;1.84;;;;;;;;;;359486;142;857402;-63
2022/05/16 03:34:42;;;;;;;4.89;1.92;;;;;;;;;;355300;148;858209;-64
2022/05/16 03:35:43;;;;;;;3.28;1.45;;;;;;;;;;356322;149;857781;-64
2022/05/16 03:36:45;;;;;;;3.70;1.51;;;;;;;;;;358544;150;864762;-64
2022/05/16 03:37:46;;;;;;;2.71;1.86;;;;;;;;;;356354;150;865788;-63
2022/05/16 03:41:30;;;;;;;2.54;1.54;;;;;;;;;;355754;149;857326;-63
2022/05/16 03:42:32;;;;;;;5.97;1.71;;;;;;;;;;355442;151;858476;-64
2022/05/16 03:43:34;;;;;;;4.84;2.20;;;;;;;;;;357410;150;862565;-63
2022/05/16 03:44:37;;;;;;;5.87;2.18;;;;;;;;;;357487;150;866456;-63
2022/05/16 03:45:38;;;;;;;4.87;2.05;;;;;;;;;;357502;148;864712;-64
2022/05/16 03:46:40;;;;;;;4.26;1.96;;;;;;;;;;357640;150;857291;-64
2022/05/16 03:47:42;;;;;;;3.33;1.87;;;;;;;;;;357550;148;864967;-63
2022/05/16 03:48:43;;;;;;;4.31;1.93;;;;;;;;;;357572;150;864899;-63
2022/05/16 03:49:45;;;;;;;5.57;1.80;;;;;;;;;;359355;148;857319;-63
2022/05/16 03:50:46;;;;;;;3.04;1.98;;;;;;;;;;364142;148;864839;-63
2022/05/16 03:51:48;;;;;;;4.84;2.27;;;;;;;;;;361768;147;864634;-63
2022/05/16 03:52:50;;;;;;;4.14;1.77;;;;;;;;;;357562;150;857314;-64
2022/05/16 03:53:51;;;;;;;4.21;1.84;;;;;;;;;;357855;148;857106;-63
2022/05/16 03:54:53;;;;;;;4.31;1.99;;;;;;;;;;357586;150;857640;-63
2022/05/16 03:55:54;;;;;;;5.02;2.06;;;;;;;;;;357736;148;857710;-63
2022/05/16 03:56:56;;;;;;;3.69;1.90;;;;;;;;;;357681;150;857232;-62
2022/05/16 03:57:57;;;;;;;6.81;2.60;;;;;;;;;;357633;148;864627;-63
2022/05/16 03:58:59;;;;;;;4.85;1.83;;;;;;;;;;357693;150;857542;-63
2022/05/16 04:00:00;;;;;;;8.95;2.21;;;;;;;;;;357662;150;857185;-63
2022/05/16 04:01:02;;;;;;;4.14;2.11;;;;;;;;;;357682;150;857093;-63
2022/05/16 04:02:05;;;;;;;4.42;2.17;;;;;;;;;;357741;148;857165;-63
2022/05/16 04:03:07;;;;;;;3.51;1.86;;;;;;;;;;357571;150;861134;-64
2022/05/16 04:04:08;;;;;;;3.67;1.74;;;;;;;;;;357800;148;858977;-63
2022/05/16 04:05:10;;;;;;;6.21;2.28;;;;;;;;;;357670;150;859854;-64
2022/05/16 04:06:13;;;;;;;5.21;1.99;;;;;;;;;;357644;150;860101;-63
2022/05/16 04:07:15;;;;;;;5.32;1.84;;;;;;;;;;357658;150;858887;-64
2022/05/16 04:08:17;;;;;;;4.02;1.64;;;;;;;;;;357676;150;859197;-63
2022/05/16 04:09:19;;;;;;;3.85;1.51;;;;;;;;;;357709;150;857209;-63
2022/05/16 04:10:20;;;;;;;2.66;1.79;;;;;;;;;;357662;150;859314;-64
2022/05/16 04:11:22;;;;;;;2.60;1.61;;;;;;;;;;357617;150;864849;-63
2022/05/16 04:12:23;;;;;;;5.26;1.64;;;;;;;;;;363852;148;857262;-64
2022/05/16 04:13:26;;;;;;;6.68;1.96;;;;;;;;;;364328;147;857167;-64
2022/05/16 04:14:27;;;;;;;2.82;1.65;;;;;;;;;;357699;150;857230;-63
2022/05/16 04:15:29;;;;;;;4.94;2.04;;;;;;;;;;357654;148;857011;-63
2022/05/16 04:16:31;;;;;;;3.95;1.69;;;;;;;;;;357698;150;857413;-62
2022/05/16 04:17:33;;;;;;;3.78;1.58;;;;;;;;;;357649;148;866022;-63
2022/05/16 04:18:36;;;;;;;6.76;2.14;;;;;;;;;;357676;150;859199;-63
2022/05/16 04:19:37;;;;;;;2.96;1.69;;;;;;;;;;357604;148;866237;-62
2022/05/16 04:20:39;;;;;;;2.46;1.54;;;;;;;;;;357708;150;858843;-64
2022/05/16 04:21:41;;;;;;;4.53;1.70;;;;;;;;;;357703;148;865284;-63
2022/05/16 04:22:42;;;;;;;6.42;1.68;;;;;;;;;;357611;150;865902;-63
2022/05/16 04:23:44;;;;;;;4.46;1.59;;;;;;;;;;357706;148;857853;-63
2022/05/16 04:24:45;;;;;;;4.15;1.78;;;;;;;;;;357729;150;857439;-63
2022/05/16 04:25:47;;;;;;;4.25;1.99;;;;;;;;;;357761;148;857308;-62
2022/05/16 04:26:48;;;;;;;2.89;1.48;;;;;;;;;;357713;150;857271;-63
2022/05/16 04:27:50;;;;;;;3.55;1.73;;;;;;;;;;357644;148;864672;-64
2022/05/16 04:28:51;;;;;;;2.84;1.56;;;;;;;;;;357668;148;857227;-62
2022/05/16 04:29:53;;;;;;;7.74;1.66;;;;;;;;;;357697;148;857265;-65
2022/05/16 04:30:55;;;;;;;4.89;1.96;;;;;;;;;;357657;150;857286;-64
2022/05/16 04:31:56;;;;;;;5.24;1.49;;;;;;;;;;357656;148;866527;-63
2022/05/16 04:32:57;;;;;;;5.84;1.83;;;;;;;;;;357710;150;857024;-63
2022/05/16 04:33:59;;;;;;;4.05;1.63;;;;;;;;;;357660;150;858383;-63
2022/05/16 04:35:01;;;;;;;3.81;2.14;;;;;;;;;;356411;150;857318;-63
2022/05/16 04:36:02;;;;;;;3.90;1.47;;;;;;;;;;356584;148;857778;-62
2022/05/16 04:37:04;;;;;;;3.10;1.62;;;;;;;;;;356556;150;857667;-64
2022/05/16 04:38:05;;;;;;;5.46;1.60;;;;;;;;;;360484;148;865879;-63
2022/05/16 04:39:07;;;;;;;3.90;1.76;;;;;;;;;;363146;148;859876;-64
2022/05/16 04:40:09;;;;;;;4.13;1.69;;;;;;;;;;358355;148;864782;-63
2022/05/16 04:42:46;;;;;;;4.41;1.58;;;;;;;;;;356120;151;857796;-63
2022/05/16 04:43:48;;;;;;;6.81;1.66;;;;;;;;;;356398;148;865938;-63
2022/05/16 04:44:49;;;;;;;2.49;1.52;;;;;;;;;;362870;148;857335;-64
2022/05/16 04:45:51;;;;;;;3.44;1.50;;;;;;;;;;360557;148;857674;-64
2022/05/16 04:46:52;;;;;;;2.98;1.37;;;;;;;;;;356562;151;857536;-63
2022/05/16 04:47:55;;;;;;;3.56;1.69;;;;;;;;;;356526;148;864850;-64
2022/05/16 04:48:58;;;;;;;3.43;1.62;;;;;;;;;;356537;148;857147;-64
2022/05/16 04:49:59;;;;;;;2.37;1.27;;;;;;;;;;356579;151;857841;-62
2022/05/16 04:51:01;;;;;;;3.00;1.81;;;;;;;;;;356563;151;858041;-64
2022/05/16 04:52:03;;;;;;;6.00;1.79;;;;;;;;;;356516;151;864610;-63
2022/05/16 04:53:04;;;;;;;4.35;1.67;;;;;;;;;;356533;151;857737;-63
2022/05/16 04:54:06;;;;;;;4.38;1.42;;;;;;;;;;356534;151;859578;-64
2022/05/16 04:55:08;;;;;;;3.50;1.56;;;;;;;;;;356575;150;861788;-63
2022/05/16 04:56:10;;;;;;;2.87;1.37;;;;;;;;;;356578;150;859317;-64
2022/05/16 04:57:11;;;;;;;5.56;1.96;;;;;;;;;;356617;151;858733;-63
2022/05/16 04:58:14;;;;;;;5.96;1.74;;;;;;;;;;356475;151;864919;-64
2022/05/16 04:59:15;;;;;;;3.17;1.49;;;;;;;;;;356545;151;864799;-64
2022/05/16 05:00:18;;;;;;;5.60;1.34;;;;;;;;;;356624;150;859458;-63
2022/05/16 05:01:19;;;;;;;2.79;1.43;;;;;;;;;;356533;151;864640;-63
2022/05/16 05:02:21;;;;;;;2.39;1.21;;;;;;;;;;356511;151;859146;-63
2022/05/16 05:03:22;;;;;;;4.77;1.36;;;;;;;;;;356427;151;858280;-63
2022/05/16 05:04:24;;;;;;;3.97;1.35;;;;;;;;;;356403;148;857737;-64
2022/05/16 05:05:26;;;;;;;4.00;1.35;;;;;;;;;;356433;151;857220;-63
2022/05/16 05:06:27;;;;;;;5.60;1.27;;;;;;;;;;356440;151;857650;-64
2022/05/16 05:07:29;;;;;;;6.73;1.32;;;;;;;;;;356605;148;864773;-63
2022/05/16 05:08:30;;;;;;;5.60;1.21;;;;;;;;;;356585;151;857176;-64
2022/05/16 05:14:31;;;;;;;3.17;1.44;;;;;;;;;;356603;151;857332;-63
2022/05/16 05:14:34;;;;;;;3.77;1.61;;;;;;;;;;356228;151;857183;-63
2022/05/16 05:15:36;;;;;;;;;;;;;;;;;;359254;151;863856;-64
2022/05/16 05:16:38;;;;;;;4.13;1.21;;;;;;;;;;356580;151;857685;-66
2022/05/16 05:17:41;;;;;;;2.74;1.21;;;;;;;;;;356532;151;857195;-63
2022/05/16 05:18:42;;;;;;;3.79;1.30;;;;;;;;;;356482;151;865390;-63
2022/05/16 05:19:44;;;;;;;3.23;1.23;;;;;;;;;;356577;151;860363;-63
2022/05/16 05:20:45;;;;;;;2.96;1.21;;;;;;;;;;356569;151;865304;-63
2022/05/16 05:21:47;;;;;;;2.65;1.11;;;;;;;;;;356508;151;866304;-64
2022/05/16 05:22:49;;;;;;;3.90;1.02;;;;;;;;;;356562;151;857402;-64
2022/05/16 05:23:52;;;;;;;2.31;1.12;;;;;;;;;;356480;148;859068;-64
2022/05/16 05:24:53;;;;;;;1.85;1.13;;;;;;;;;;356333;151;858076;-63
2022/05/16 05:25:56;;;;;;;2.28;1.09;;;;;;;;;;357274;150;864778;-63
2022/05/16 05:26:57;;;;;;;2.16;0.95;;;;;;;;;;357700;150;858003;-64
2022/05/16 05:27:59;;;;;;;5.04;1.35;;;;;;;;;;357654;150;864738;-64
2022/05/16 05:29:01;;;;;;;3.65;1.15;;;;;;;;;;357349;148;858902;-63
2022/05/16 05:30:03;;;;;;;2.58;1.26;;;;;;;;;;360134;148;858992;-63
2022/05/16 05:31:05;;;;;;;4.81;1.17;;;;;;;;;;363075;148;865800;-63
2022/05/16 05:32:07;;;;;;;3.63;1.61;;;;;;;;;;356474;150;859258;-65
2022/05/16 05:33:09;;;;;;;3.47;1.44;;;;;;;;;;356577;148;864368;-63
2022/05/16 05:34:11;;;;;;;5.07;1.12;;;;;;;;;;358404;148;858548;-63
2022/05/16 05:35:13;;;;;;;3.15;1.08;;;;;;;;;;356474;150;859738;-63
2022/05/16 05:36:15;;;;;;;5.46;1.29;;;;;;;;;;360484;148;858741;-65
2022/05/16 05:37:17;;;;;;;5.39;1.46;;;;;;;;;;361924;148;859100;-66
2022/05/16 05:38:18;;;;;;;3.63;1.13;;;;;;;;;;357859;148;857718;-66
2022/05/16 05:39:20;;;;;;;1.79;1.05;;;;;;;;;;356494;151;857325;-64
2022/05/16 05:40:22;;;;;;;3.01;1.13;;;;;;;;;;356482;148;857348;-63
2022/05/16 05:41:24;;;;;;;3.04;1.24;;;;;;;;;;356397;151;857189;-64
2022/05/16 05:42:26;;;;;;;5.98;1.60;;;;;;;;;;361321;148;867026;-64
2022/05/16 05:43:28;;;;;;;3.58;1.11;;;;;;;;;;356416;150;857338;-63
2022/05/16 05:44:29;;;;;;;3.81;2.06;;;;;;;;;;356429;151;857156;-63
2022/05/16 05:45:31;;;;;;;3.78;1.46;;;;;;;;;;356553;148;857214;-64
2022/05/16 05:46:36;;;;;;;5.31;1.33;;;;;;;;;;356460;151;858975;-63
2022/05/16 05:47:38;;;;;;;6.96;1.37;;;;;;;;;;356225;150;857649;-64
2022/05/16 05:48:39;;;;;;;2.81;1.36;;;;;;;;;;356385;151;857187;-64
2022/05/16 05:49:41;;;;;;;5.57;1.61;;;;;;;;;;356469;148;857381;-65
2022/05/16 05:50:43;;;;;;;2.45;1.57;;;;;;;;;;356507;151;857387;-64
2022/05/16 05:51:44;;;;;;;6.43;1.47;;;;;;;;;;356477;148;858292;-64
2022/05/16 05:52:46;;;;;;;3.08;1.01;;;;;;;;;;356412;151;860150;-64
2022/05/16 05:53:47;;;;;;;3.06;0.98;;;;;;;;;;356937;148;858614;-65
2022/05/16 05:54:49;;;;;;;1.76;1.09;;;;;;;;;;357715;150;858016;-64
2022/05/16 05:55:50;;;;;;;5.51;1.06;;;;;;;;;;358247;148;857288;-63
2022/05/16 05:56:52;;;;;;;2.41;0.91;;;;;;;;;;363019;148;864839;-63
2022/05/16 05:57:53;;;;;;;2.76;0.96;;;;;;;;;;360189;148;864925;-63
2022/05/16 05:58:56;;;;;;;1.94;0.82;;;;;;;;;;356387;151;857241;-63
2022/05/16 05:59:57;;;;;;;2.16;0.90;;;;;;;;;;356485;148;857617;-64
2022/05/16 06:00:59;;;;;;;3.21;0.86;;;;;;;;;;356366;151;857210;-63
2022/05/16 06:02:01;;;;;;;2.87;0.71;;;;;;;;;;359858;148;864944;-63
2022/05/16 06:03:02;;;;;;;1.51;0.79;;;;;;;;;;363058;148;857467;-65
2022/05/16 06:04:04;;;;;;;1.53;0.74;;;;;;;;;;358922;148;857272;-65
2022/05/16 06:05:08;;;;;;;4.29;2.20;;;;;;;;;;356414;151;864770;-64
2022/05/16 06:06:10;;;;;;;2.38;0.95;;;;;;;;;;355726;148;857227;-64
2022/05/16 06:07:12;;;;;;;3.42;0.77;;;;;;;;;;356461;151;857754;-63
2022/05/16 06:08:13;;;;;;;4.65;0.96;;;;;;;;;;356539;148;858044;-62
2022/05/16 06:09:15;;;;;;;2.02;0.73;;;;;;;;;;356445;151;858541;-66
2022/05/16 06:10:17;;;;;;;3.36;1.00;;;;;;;;;;356300;148;865437;-64
2022/05/16 06:11:20;;;;;;;3.63;1.21;;;;;;;;;;356399;151;858834;-63
2022/05/16 06:12:21;;;;;;;2.71;0.92;;;;;;;;;;356525;148;865436;-63
2022/05/16 06:13:23;;;;;;;2.25;0.81;;;;;;;;;;356560;151;857240;-62
2022/05/16 06:14:25;;;;;;;3.89;0.99;;;;;;;;;;356624;148;859014;-65
2022/05/16 06:15:27;;;;;;;2.28;0.98;;;;;;;;;;356510;150;858202;-64
2022/05/16 06:16:29;;;;;;;2.27;0.69;;;;;;;;;;356515;151;857018;-64
2022/05/16 06:17:30;;;;;;;3.70;0.77;;;;;;;;;;356646;148;865871;-65
2022/05/16 06:18:32;;;;;;;3.38;0.86;;;;;;;;;;356559;150;859400;-63
2022/05/16 06:19:36;;;;;;;3.02;0.96;;;;;;;;;;356548;148;860364;-64
2022/05/16 06:20:37;;;;;;;0.97;0.57;;;;;;;;;;356426;151;858383;-63
2022/05/16 06:21:39;;;;;;;1.57;0.61;;;;;;;;;;357716;148;857119;-63
2022/05/16 06:22:40;;;;;;;2.55;0.89;;;;;;;;;;362958;148;866593;-63
2022/05/16 06:23:42;;;;;;;2.26;0.89;;;;;;;;;;361379;148;857295;-64